createdAt,value
2018-02-18T10:36:33.150Z,21.33
2018-02-18T10:39:00.095Z,23.85
2018-02-18T10:41:27.946Z,15.43
2018-02-18T10:43:54.620Z,16.77
2018-02-18T10:46:21.404Z,26.50
2018-02-18T10:48:48.270Z,18.95
2018-02-18T10:51:15.302Z,13.68
2018-02-18T10:53:42.426Z,21.67
2018-02-18T10:56:12.593Z,15.80
2018-02-18T10:58:39.266Z,15.73
2018-02-18T11:01:05.960Z,17.55
2018-02-18T11:06:11.279Z,12.97
2018-02-18T11:08:38.691Z,16.48
2018-02-18T11:11:05.366Z,15.40
2018-02-18T11:38:51.418Z,13.13
2018-02-18T11:41:18.188Z,15.10
2018-02-18T11:43:44.880Z,15.30
2018-02-18T11:46:12.388Z,17.43
2018-02-18T11:48:39.221Z,14.30
2018-02-18T11:51:05.936Z,13.77
2018-02-18T11:53:32.640Z,13.63
2018-02-18T11:55:59.532Z,12.43
2018-02-18T11:58:26.393Z,13.43
2018-02-18T12:00:53.125Z,13.43
2018-02-18T12:03:20.107Z,13.73
2018-02-18T12:05:46.801Z,13.07
2018-02-18T12:08:13.585Z,13.90
2018-02-18T12:10:41.129Z,14.20
2018-02-18T12:13:09.278Z,12.97
2018-02-18T12:15:35.948Z,12.90
2018-02-18T12:18:02.633Z,12.97
2018-02-18T12:20:29.225Z,13.70
2018-02-18T12:22:56.149Z,12.60
2018-02-18T12:25:30.393Z,12.87
2018-02-18T12:27:57.113Z,12.37
2018-02-18T12:30:23.979Z,11.57
2018-02-18T12:32:50.686Z,11.10
2018-02-18T12:35:22.470Z,11.10
2018-02-18T12:37:49.927Z,12.50
2018-02-18T12:40:17.280Z,12.40
2018-02-18T12:42:43.951Z,12.10
2018-02-18T12:47:54.085Z,11.60
2018-02-18T12:50:21.826Z,12.17
2018-02-18T12:52:48.553Z,10.93
2018-02-18T13:13:17.251Z,11.40
2018-02-18T13:15:44.812Z,11.90
2018-02-18T13:18:13.091Z,11.73
2018-02-18T13:20:41.076Z,12.83
2018-02-18T13:41:10.211Z,11.17
2018-02-18T13:43:38.619Z,11.40
2018-02-18T13:46:06.144Z,11.87
2018-02-18T13:48:35.422Z,12.60
2018-02-18T13:51:03.146Z,12.03
2018-02-18T13:53:30.768Z,12.63
2018-02-18T13:56:01.720Z,11.73
2018-02-18T13:58:30.162Z,12.47
2018-02-18T14:00:57.014Z,12.20
2018-02-18T14:03:24.441Z,11.50
2018-02-18T14:05:51.241Z,11.87
2018-02-18T14:08:18.681Z,11.73
2018-02-18T14:10:45.706Z,11.50
2018-02-18T14:13:12.898Z,11.73
2018-02-18T14:15:39.608Z,12.60
2018-02-18T14:18:07.999Z,13.03
2018-02-18T14:20:35.380Z,12.77
2018-02-18T14:23:02.786Z,13.50
2018-02-18T14:25:29.437Z,11.00
2018-02-18T14:27:57.682Z,11.80
2018-02-18T14:30:24.453Z,12.07
2018-02-18T14:32:52.383Z,11.83
2018-02-18T14:35:19.211Z,11.80
2018-02-18T14:37:47.059Z,12.17
2018-02-18T14:40:14.885Z,10.67
2018-02-18T14:43:00.407Z,11.37
2018-02-18T14:45:46.228Z,11.40
2018-02-18T14:48:32.160Z,11.53
2018-02-18T15:09:00.298Z,12.60
2018-02-18T15:11:27.617Z,13.50
2018-02-18T15:13:58.246Z,13.60
2018-02-18T15:16:24.889Z,15.10
2018-02-18T15:18:51.795Z,13.93
2018-02-18T15:21:19.166Z,13.87
2018-02-18T15:23:46.032Z,12.60
2018-02-18T15:26:12.654Z,15.20
2018-02-18T15:46:40.455Z,16.27
2018-02-18T15:49:07.514Z,14.90
2018-02-18T15:51:34.198Z,15.43
2018-02-18T16:12:01.824Z,17.33
2018-02-18T16:14:29.278Z,16.33
2018-02-18T16:16:56.136Z,17.60
2018-02-18T16:19:23.644Z,17.13
2018-02-18T16:21:50.686Z,14.93
2018-02-18T16:42:18.627Z,17.67
2018-02-18T16:44:46.090Z,17.20
2018-02-18T16:47:13.594Z,18.03
2018-02-18T16:49:40.789Z,18.17
2018-02-18T16:52:08.462Z,17.05
2018-02-18T16:54:36.068Z,18.40
2018-02-18T16:57:06.824Z,17.47
2018-02-18T16:59:34.027Z,18.65
2018-02-18T17:02:02.670Z,17.83
2018-02-18T17:04:30.886Z,17.33
2018-02-18T17:06:59.967Z,16.95
2018-02-18T17:09:29.839Z,17.98
2018-02-18T17:12:00.265Z,17.83
2018-02-18T17:14:29.460Z,18.08
2018-02-18T17:16:59.394Z,16.77
2018-02-18T17:19:27.741Z,16.70
2018-02-18T17:21:56.318Z,17.10
2018-02-18T17:24:25.028Z,17.58
2018-02-18T17:26:53.521Z,19.50
2018-02-18T17:29:22.057Z,18.00
2018-02-18T17:31:51.250Z,17.45
2018-02-18T17:34:19.881Z,16.75
2018-02-18T17:36:48.466Z,16.12
2018-02-18T17:39:16.964Z,17.80
2018-02-18T17:41:45.541Z,16.10
2018-02-18T17:44:14.210Z,15.90
2018-02-18T17:46:43.160Z,17.77
2018-02-18T17:49:11.666Z,17.48
2018-02-18T17:51:40.290Z,16.45
2018-02-18T17:54:08.853Z,15.85
2018-02-18T17:56:37.501Z,15.30
2018-02-18T17:59:07.239Z,15.05
2018-02-18T22:30:03.531Z,22.35
